Time;durP1;ratioP1;P1;durP2;ratioP2;P2;SDS_P1;SDS_P2;PMS_P1;PMS_P2;Temp;Humidity;BMP_temperature;BMP_pressure;BME280_temperature;BME280_humidity;BME280_pressure;Samples;Min_cycle;Max_cycle;Signal;HPM_P1;HPM_P2
2022/10/01 00:02:17;;;;;;;10.40;2.30;;;;;;;18.17;83.84;99558.46;25003;1316;3026473;-63
2022/10/01 00:04:46;;;;;;;7.30;3.90;;;;;;;18.35;82.48;99557.58;24977;1316;3051156;-63
2022/10/01 00:07:15;;;;;;;9.40;3.50;;;;;;;18.25;82.98;99555.00;24975;1316;3026583;-65
2022/10/01 00:09:44;;;;;;;9.00;4.00;;;;;;;18.12;82.73;99559.81;24953;1317;3068298;-62
2022/10/01 00:12:14;;;;;;;8.30;4.50;;;;;;;17.72;84.40;99562.86;24982;1317;3026629;-63
2022/10/01 00:14:44;;;;;;;4.30;2.20;;;;;;;17.48;86.32;99559.11;25049;1317;3050877;-62
2022/10/01 00:17:13;;;;;;;5.30;2.80;;;;;;;17.84;86.05;99554.39;24940;1317;3026555;-63
2022/10/01 00:19:42;;;;;;;8.80;3.30;;;;;;;18.29;82.88;99552.65;25022;1316;3054776;-61
2022/10/01 00:22:11;;;;;;;5.70;4.10;;;;;;;18.15;83.05;99559.76;25005;1316;3026759;-62
2022/10/01 00:24:39;;;;;;;8.40;4.10;;;;;;;17.80;84.68;99564.81;25017;1316;3051619;-64
2022/10/01 00:27:09;;;;;;;9.70;3.80;;;;;;;17.66;85.32;99565.52;24942;1317;3026492;-65
2022/10/01 00:29:39;;;;;;;5.80;2.60;;;;;;;17.57;85.61;99565.38;25004;1317;3058105;-63
2022/10/01 00:32:09;;;;;;;7.30;3.80;;;;;;;17.97;84.66;99559.26;24968;1317;3026649;-64
2022/10/01 00:34:38;;;;;;;7.70;3.70;;;;;;;18.01;84.00;99557.29;25028;1317;3026632;-64
2022/10/01 00:37:09;;;;;;;8.10;3.20;;;;;;;18.05;83.97;99553.14;25005;1316;3058662;-65
2022/10/01 00:39:38;;;;;;;7.20;4.10;;;;;;;17.98;83.70;99554.93;25056;1317;3027022;-63
2022/10/01 00:42:16;;;;;;;7.00;4.90;;;;;;;17.65;84.58;99556.23;25017;1316;3028687;-64
2022/10/01 00:44:46;;;;;;;5.90;3.40;;;;;;;17.29;87.09;99569.95;24994;1318;3057023;-65
2022/10/01 00:47:23;;;;;;;8.80;4.50;;;;;;;17.88;85.15;99559.98;25030;1316;3026874;-63
2022/10/01 00:49:55;;;;;;;13.70;5.30;;;;;;;18.16;83.20;99555.08;24930;1317;3054114;-64
2022/10/01 00:52:27;;;;;;;11.60;4.80;;;;;;;18.00;83.46;99558.83;24933;1316;3028705;-64
2022/10/01 00:55:03;;;;;;;10.40;5.00;;;;;;;17.78;84.36;99559.86;24933;1316;3026259;-63
2022/10/01 00:57:32;;;;;;;10.40;5.20;;;;;;;17.50;85.33;99561.95;25014;1317;3050618;-64
2022/10/01 01:00:03;;;;;;;5.40;2.60;;;;;;;17.32;86.40;99563.17;24956;1319;3026486;-63
2022/10/01 01:02:32;;;;;;;8.20;3.50;;;;;;;17.60;85.91;99561.75;24950;1317;3071838;-63
2022/10/01 01:05:01;;;;;;;10.30;4.00;;;;;;;17.91;84.08;99556.74;24990;1316;3026673;-63
2022/10/01 01:07:31;;;;;;;8.50;4.80;;;;;;;17.87;83.48;99555.14;24966;1317;3055461;-62
2022/10/01 01:10:00;;;;;;;8.30;4.30;;;;;;;17.62;84.70;99561.84;25000;1316;3026422;-63
2022/10/01 01:13:05;;;;;;;13.50;5.20;;;;;;;17.40;85.54;99564.94;25055;1316;3055483;-63
2022/10/01 01:15:45;;;;;;;4.70;2.10;;;;;;;17.34;86.01;99564.08;24970;1317;3055028;-63
2022/10/01 01:18:39;;;;;;;7.50;3.90;;;;;;;17.99;83.72;99557.64;25011;1316;3069928;-60
2022/10/01 01:21:25;;;;;;;10.10;4.70;;;;;;;17.95;82.75;99563.09;25000;1317;3053179;-64
2022/10/01 01:24:13;;;;;;;10.30;4.80;;;;;;;17.69;83.81;99561.69;24976;1316;3054539;-64
2022/10/01 01:26:45;;;;;;;10.10;4.40;;;;;;;17.38;84.74;99566.34;24955;1316;3053023;-62
2022/10/01 01:29:24;;;;;;;5.50;2.40;;;;;;;17.24;85.85;99574.09;24924;1317;3026870;-63
2022/10/01 01:31:56;;;;;;;6.60;3.50;;;;;;;17.66;84.18;99561.44;25016;1316;3049183;-63
2022/10/01 01:34:26;;;;;;;14.10;4.80;;;;;;;17.94;82.59;99556.49;25019;1316;3025997;-62
2022/10/01 01:37:01;;;;;;;8.90;4.80;;;;;;;17.66;83.18;99562.48;25041;1316;3026402;-63
2022/10/01 01:39:31;;;;;;;11.80;4.70;;;;;;;17.47;84.40;99561.35;25003;1317;3069745;-63
2022/10/01 01:42:04;;;;;;;11.00;5.70;;;;;;;17.20;85.25;99567.80;24968;1317;3026767;-61
2022/10/01 01:44:37;;;;;;;6.50;2.90;;;;;;;17.03;86.55;99565.31;25017;1318;3051695;-62
2022/10/01 01:47:06;;;;;;;7.30;3.00;;;;;;;17.53;84.94;99561.48;24964;1317;3028396;-64
2022/10/01 01:49:37;;;;;;;8.50;3.50;;;;;;;17.74;82.99;99562.11;25032;1316;3026334;-63
2022/10/01 01:52:12;;;;;;;9.00;4.00;;;;;;;17.61;82.58;99558.15;24957;1316;3050778;-64
2022/10/01 01:54:43;;;;;;;10.70;4.20;;;;;;;17.38;84.06;99562.83;24985;1317;3055008;-62
2022/10/01 01:57:12;;;;;;;9.00;4.40;;;;;;;17.17;84.92;99563.63;24986;1316;3027366;-64
2022/10/01 01:59:43;;;;;;;7.60;2.90;;;;;;;16.98;85.68;99561.99;24988;1316;3029542;-64
2022/10/01 02:02:15;;;;;;;6.70;3.50;;;;;;;17.36;84.46;99562.09;24960;1316;3028612;-62
2022/10/01 02:04:47;;;;;;;6.50;3.40;;;;;;;17.61;82.76;99560.48;24970;1318;3026288;-62
2022/10/01 02:07:25;;;;;;;5.90;3.80;;;;;;;17.55;82.67;99563.66;24942;1316;3026947;-63
2022/10/01 02:10:01;;;;;;;9.50;4.70;;;;;;;17.27;83.62;99570.52;24962;1316;3051729;-63
2022/10/01 02:12:52;;;;;;;8.60;4.90;;;;;;;17.00;84.95;99569.80;24955;1316;3052207;-63
2022/10/01 02:15:27;;;;;;;5.50;2.30;;;;;;;16.86;85.86;99566.59;25026;1316;3053193;-63
2022/10/01 02:18:08;;;;;;;7.60;3.60;;;;;;;17.48;83.53;99562.27;25037;1318;3056853;-63
2022/10/01 02:20:54;;;;;;;6.30;3.60;;;;;;;17.54;82.37;99560.02;24941;1316;3052207;-62
2022/10/01 02:23:34;;;;;;;8.50;4.20;;;;;;;17.32;83.17;99563.52;24971;1317;3055225;-63
2022/10/01 02:26:15;;;;;;;11.30;4.20;;;;;;;17.02;84.14;99570.91;25029;1316;3054412;-64
2022/10/01 02:28:44;;;;;;;9.30;4.30;;;;;;;16.77;85.20;99575.83;24942;1316;3068722;-63
2022/10/01 02:31:14;;;;;;;3.80;2.10;;;;;;;16.67;85.98;99568.35;24998;1317;3026648;-63
2022/10/01 02:33:43;;;;;;;4.90;2.50;;;;;;;17.10;84.86;99562.42;25026;1318;3053928;-62
2022/10/01 02:36:12;;;;;;;8.90;3.90;;;;;;;17.50;82.61;99562.50;25013;1316;3026591;-64
2022/10/01 02:38:42;;;;;;;8.20;4.20;;;;;;;17.33;82.61;99562.75;24976;1316;3055322;-63
2022/10/01 02:41:12;;;;;;;9.10;3.80;;;;;;;17.09;83.16;99566.40;25020;1317;3026836;-64
2022/10/01 02:44:13;;;;;;;8.30;4.70;;;;;;;16.96;83.52;99563.98;25026;1318;3027162;-64
2022/10/01 02:47:03;;;;;;;6.80;2.40;;;;;;;16.86;83.85;99565.11;24981;1316;3052398;-61
2022/10/01 02:49:32;;;;;;;5.40;3.30;;;;;;;17.17;83.05;99568.68;24954;1316;3052168;-60
2022/10/01 02:52:17;;;;;;;4.70;3.70;;;;;;;17.28;82.25;99568.77;25046;1317;3026754;-63
2022/10/01 02:55:07;;;;;;;7.90;4.20;;;;;;;17.20;82.12;99571.48;24959;1317;3056121;-62
2022/10/01 02:57:37;;;;;;;7.50;4.30;;;;;;;16.92;82.94;99579.73;24962;1317;3052580;-62
2022/10/01 03:00:11;;;;;;;7.60;4.50;;;;;;;16.69;83.83;99586.23;24970;1316;3026485;-61
2022/10/01 03:02:41;;;;;;;6.90;2.30;;;;;;;16.49;84.98;99589.80;25038;1317;3052727;-63
2022/10/01 03:05:10;;;;;;;4.60;2.60;;;;;;;16.86;84.27;99579.83;24972;1316;3026986;-63
2022/10/01 03:07:41;;;;;;;6.20;4.00;;;;;;;17.38;81.59;99575.77;25037;1316;3054669;-64
2022/10/01 03:10:10;;;;;;;7.30;4.00;;;;;;;17.27;81.35;99580.02;25013;1316;3026641;-64
2022/10/01 03:12:41;;;;;;;9.20;4.30;;;;;;;17.12;81.76;99582.09;24992;1316;3052134;-66
2022/10/01 03:15:12;;;;;;;11.10;5.40;;;;;;;16.92;82.22;99584.11;24998;1316;3027137;-65
2022/10/01 03:17:41;;;;;;;10.20;2.60;;;;;;;16.57;83.81;99595.31;24953;1316;3026790;-63
2022/10/01 03:20:11;;;;;;;8.70;3.80;;;;;;;16.94;83.38;99590.66;25013;1317;3026346;-62
2022/10/01 03:22:40;;;;;;;9.70;4.10;;;;;;;17.36;81.44;99584.56;24989;1317;3055116;-63
2022/10/01 03:25:09;;;;;;;7.90;4.70;;;;;;;17.19;81.02;99585.38;24990;1316;3026367;-63
2022/10/01 03:27:39;;;;;;;9.60;4.90;;;;;;;16.94;81.77;99592.79;24937;1317;3051451;-59
2022/10/01 03:30:08;;;;;;;11.50;4.80;;;;;;;16.80;82.06;99596.57;25050;1316;3026446;-63
2022/10/01 03:32:37;;;;;;;7.70;2.90;;;;;;;16.53;83.73;99600.80;25039;1316;3055974;-62
2022/10/01 03:35:07;;;;;;;9.50;3.80;;;;;;;16.80;83.13;99597.11;24976;1316;3027484;-64
2022/10/01 03:37:36;;;;;;;8.30;3.70;;;;;;;17.17;81.10;99593.66;24952;1318;3054702;-64
2022/10/01 03:40:06;;;;;;;6.90;3.90;;;;;;;17.09;81.11;99591.16;25034;1317;3027122;-64
2022/10/01 03:42:35;;;;;;;6.40;4.10;;;;;;;16.92;81.63;99596.13;25000;1317;3026724;-66
2022/10/01 03:45:05;;;;;;;11.20;5.00;;;;;;;16.67;82.41;99602.61;24964;1318;3027620;-64
2022/10/01 03:47:34;;;;;;;9.10;2.50;;;;;;;16.47;83.54;99606.10;24969;1318;3056894;-62
2022/10/01 03:50:04;;;;;;;4.80;2.70;;;;;;;16.79;82.84;99603.64;24958;1317;3026469;-64
2022/10/01 03:52:33;;;;;;;7.40;3.40;;;;;;;17.17;80.94;99600.52;24974;1316;3054595;-63
2022/10/01 03:55:02;;;;;;;6.80;4.10;;;;;;;17.21;80.41;99603.40;24995;1317;3026451;-64
2022/10/01 03:57:31;;;;;;;10.00;4.20;;;;;;;16.86;81.20;99611.46;25024;1317;3052987;-64
2022/10/01 04:00:01;;;;;;;9.60;4.90;;;;;;;16.59;82.27;99612.33;24947;1318;3026942;-63
2022/10/01 04:02:29;;;;;;;6.10;2.40;;;;;;;16.22;84.16;99614.30;25021;1318;3050795;-63
2022/10/01 04:04:59;;;;;;;7.60;2.90;;;;;;;16.60;83.23;99608.67;25007;1318;3026191;-64
2022/10/01 04:07:28;;;;;;;7.40;3.90;;;;;;;16.96;81.00;99603.73;24982;1317;3070362;-64
2022/10/01 04:09:58;;;;;;;5.80;3.80;;;;;;;16.88;81.13;99604.58;24991;1319;3026234;-64
2022/10/01 04:12:27;;;;;;;6.30;4.20;;;;;;;16.63;81.65;99608.86;24985;1316;3026109;-65
2022/10/01 04:14:57;;;;;;;7.80;4.40;;;;;;;16.42;82.47;99608.56;24996;1317;3069407;-65
2022/10/01 04:17:26;;;;;;;9.60;4.60;;;;;;;16.23;83.38;99607.88;25007;1318;3026250;-62
2022/10/01 04:19:56;;;;;;;6.90;2.90;;;;;;;16.15;83.95;99610.07;25087;1318;3050410;-63
2022/10/01 04:22:25;;;;;;;5.50;3.20;;;;;;;16.56;82.52;99602.89;25007;1316;3026585;-63
2022/10/01 04:24:56;;;;;;;5.30;3.50;;;;;;;16.89;80.50;99598.71;25080;1318;3026484;-64
2022/10/01 04:27:25;;;;;;;8.80;4.90;;;;;;;16.80;80.63;99606.89;25016;1316;3026101;-63
2022/10/01 04:29:54;;;;;;;12.60;5.40;;;;;;;16.57;81.35;99609.64;25037;1317;3070619;-65
2022/10/01 04:32:24;;;;;;;9.20;5.30;;;;;;;16.30;82.60;99616.27;25043;1316;3026485;-63
2022/10/01 04:34:53;;;;;;;8.90;5.20;;;;;;;16.09;83.98;99619.08;25030;1316;3026377;-65
2022/10/01 04:37:22;;;;;;;3.10;2.40;;;;;;;16.03;84.57;99620.83;25075;1318;3069223;-66
2022/10/01 04:39:52;;;;;;;6.30;2.90;;;;;;;16.42;83.28;99613.16;25080;1318;3026314;-65
2022/10/01 04:42:21;;;;;;;5.50;3.30;;;;;;;16.85;81.36;99606.27;25029;1318;3052270;-65
2022/10/01 04:44:50;;;;;;;5.50;3.50;;;;;;;16.80;80.91;99613.06;24995;1316;3026906;-64
2022/10/01 04:47:19;;;;;;;4.30;3.50;;;;;;;16.64;81.75;99619.54;25016;1316;3054848;-65
2022/10/01 04:49:48;;;;;;;8.10;4.00;;;;;;;16.45;82.38;99617.55;25032;1318;3026717;-63
2022/10/01 04:52:17;;;;;;;5.00;3.20;;;;;;;16.26;83.29;99620.36;25167;1318;3026593;-63
2022/10/01 04:54:46;;;;;;;3.80;2.50;;;;;;;16.09;84.35;99618.34;25046;1318;3051243;-64
2022/10/01 04:57:15;;;;;;;5.30;2.60;;;;;;;16.47;83.43;99619.46;25105;1318;3026262;-62
2022/10/01 04:59:45;;;;;;;4.90;3.20;;;;;;;16.72;81.97;99616.91;25003;1318;3026572;-64
2022/10/01 05:02:16;;;;;;;4.30;2.80;;;;;;;16.76;81.77;99615.65;25062;1318;3055809;-64
2022/10/01 05:04:46;;;;;;;4.50;4.00;;;;;;;16.66;82.15;99621.67;25108;1318;3026920;-64
2022/10/01 05:07:15;;;;;;;5.10;4.10;;;;;;;16.42;83.28;99622.73;25004;1318;3026490;-65
2022/10/01 05:09:44;;;;;;;3.60;2.40;;;;;;;16.31;83.49;99623.96;25043;1318;3026891;-63
2022/10/01 05:12:13;;;;;;;5.20;3.00;;;;;;;16.62;83.06;99620.41;25097;1316;3053792;-65
2022/10/01 05:14:46;;;;;;;4.20;3.30;;;;;;;16.98;81.28;99618.96;25031;1318;3026768;-65
2022/10/01 05:17:17;;;;;;;7.00;3.20;;;;;;;16.92;81.63;99623.60;25003;1316;3026256;-67
2022/10/01 05:19:46;;;;;;;5.50;4.10;;;;;;;16.77;81.91;99626.42;25044;1317;3026917;-65
2022/10/01 05:22:15;;;;;;;7.40;4.10;;;;;;;16.47;82.98;99626.75;25037;1316;3026866;-64
2022/10/01 05:24:44;;;;;;;4.90;2.40;;;;;;;16.46;83.37;99625.77;24998;1318;3026328;-64
2022/10/01 05:27:13;;;;;;;5.40;3.00;;;;;;;16.78;82.94;99620.11;25025;1316;3054769;-65
2022/10/01 05:29:42;;;;;;;4.40;3.20;;;;;;;17.05;81.34;99611.66;25012;1317;3026219;-65
2022/10/01 05:32:14;;;;;;;5.20;3.70;;;;;;;16.99;81.48;99610.05;25034;1316;3048793;-64
2022/10/01 05:34:44;;;;;;;5.10;3.50;;;;;;;16.96;81.71;99617.21;25067;1318;3026694;-63
2022/10/01 05:37:13;;;;;;;4.70;4.10;;;;;;;16.78;82.05;99624.16;25006;1317;3026207;-64
2022/10/01 05:39:43;;;;;;;3.90;2.40;;;;;;;16.62;83.34;99627.77;24985;1316;3050850;-63
2022/10/01 05:42:11;;;;;;;3.20;2.80;;;;;;;17.13;82.56;99622.15;25037;1318;3026840;-64
2022/10/01 05:44:45;;;;;;;4.40;3.20;;;;;;;17.49;80.16;99623.49;25056;1318;3068195;-64
2022/10/01 05:47:17;;;;;;;5.70;3.80;;;;;;;17.37;80.36;99626.98;25064;1318;3049429;-62
2022/10/01 05:49:46;;;;;;;5.60;3.60;;;;;;;17.07;81.58;99634.27;25113;1318;3026563;-63
2022/10/01 05:52:15;;;;;;;5.80;4.40;;;;;;;16.79;83.44;99638.25;25080;1318;3027576;-65
2022/10/01 05:54:45;;;;;;;4.80;2.10;;;;;;;16.72;84.31;99636.70;25078;1310;3050696;-62
2022/10/01 05:57:14;;;;;;;4.60;3.00;;;;;;;17.30;82.17;99631.31;25107;1310;3027123;-65
2022/10/01 05:59:43;;;;;;;4.50;3.10;;;;;;;17.55;80.66;99626.66;25139;1310;3026754;-63
2022/10/01 06:02:12;;;;;;;4.70;3.50;;;;;;;17.61;80.19;99629.14;25156;1310;3051158;-67
2022/10/01 06:04:45;;;;;;;4.70;4.20;;;;;;;17.33;81.36;99632.13;25147;1310;4221672;-65
2022/10/01 06:07:14;;;;;;;5.70;4.40;;;;;;;17.17;82.31;99639.88;25081;1310;3026121;-66
2022/10/01 06:09:44;;;;;;;3.70;2.40;;;;;;;17.20;82.24;99638.16;25079;1310;3048401;-63
2022/10/01 06:12:14;;;;;;;4.60;3.00;;;;;;;17.72;80.79;99633.91;25091;1311;3026298;-65
2022/10/01 06:14:45;;;;;;;3.80;2.80;;;;;;;18.06;79.05;99628.77;25164;1310;3070562;-67
2022/10/01 06:17:14;;;;;;;6.00;3.70;;;;;;;18.19;78.61;99630.81;25156;1310;3026590;-67
2022/10/01 06:19:44;;;;;;;5.50;3.90;;;;;;;18.12;78.99;99633.95;25167;1311;3050885;-65
2022/10/01 06:22:13;;;;;;;4.60;3.50;;;;;;;18.06;79.66;99633.02;25066;1311;3026765;-69
2022/10/01 06:24:42;;;;;;;4.20;3.50;;;;;;;18.09;78.70;99627.12;25106;1311;3054322;-67
2022/10/01 06:27:11;;;;;;;2.00;1.70;;;;;;;17.94;79.52;99621.91;25151;1309;3026550;-65
2022/10/01 06:29:40;;;;;;;3.90;2.60;;;;;;;18.34;78.22;99618.55;25080;1310;3052023;-64
2022/10/01 06:32:12;;;;;;;3.90;2.50;;;;;;;18.79;75.99;99619.36;25145;1310;3026401;-65
2022/10/01 06:34:42;;;;;;;5.10;3.10;;;;;;;18.86;75.61;99622.66;25078;1309;3056350;-67
2022/10/01 06:37:11;;;;;;;5.20;3.40;;;;;;;18.59;76.20;99625.11;25176;1311;3026965;-66
2022/10/01 06:39:40;;;;;;;4.90;3.70;;;;;;;18.23;77.52;99633.65;25191;1309;3052254;-64
2022/10/01 06:42:09;;;;;;;5.00;3.80;;;;;;;18.07;79.13;99635.11;25088;1310;3026653;-63
2022/10/01 06:44:38;;;;;;;3.40;2.10;;;;;;;17.95;79.97;99639.66;25100;1309;3053402;-64
2022/10/01 06:47:08;;;;;;;3.60;2.60;;;;;;;18.44;78.18;99637.84;25096;1311;3026773;-62
2022/10/01 06:49:36;;;;;;;4.50;2.70;;;;;;;18.83;77.07;99643.52;25089;1310;3049473;-64
2022/10/01 06:54:55;;;;;;;4.10;3.30;;;;;;;18.98;76.21;99637.84;25076;1311;3071422;-62
2022/10/01 06:57:24;;;;;;;5.10;3.60;;;;;;;18.79;77.43;99636.09;25147;1310;3026268;-62
2022/10/01 06:59:53;;;;;;;5.00;3.60;;;;;;;18.74;77.37;99632.78;25141;1310;3053500;-62
2022/10/01 07:02:27;;;;;;;3.40;2.10;;;;;;;18.60;77.66;99634.05;25087;1310;3026562;-65
2022/10/01 07:04:59;;;;;;;4.60;3.00;;;;;;;19.05;76.78;99630.85;25121;1310;3053730;-66
2022/10/01 07:07:29;;;;;;;4.60;2.90;;;;;;;19.43;74.92;99633.32;25141;1311;3026219;-63
2022/10/01 07:09:59;;;;;;;4.60;3.30;;;;;;;19.46;75.00;99637.16;25166;1309;3026979;-64
2022/10/01 07:12:30;;;;;;;4.50;3.10;;;;;;;19.60;74.59;99635.81;25123;1310;3027036;-65
2022/10/01 07:14:59;;;;;;;4.20;3.40;;;;;;;19.53;74.70;99634.70;25115;1310;3027008;-64
2022/10/01 07:17:32;;;;;;;7.50;4.30;;;;;;;19.40;75.31;99631.81;25165;1311;3071582;-64
2022/10/01 07:20:01;;;;;;;6.90;3.90;;;;;;;19.27;75.69;99626.79;25062;1311;3028265;-63
2022/10/01 07:22:30;;;;;;;6.00;1.90;;;;;;;19.26;75.56;99632.44;25152;1310;3028769;-62
2022/10/01 07:24:59;;;;;;;3.60;2.80;;;;;;;19.68;74.60;99636.06;25034;1311;3070909;-63
2022/10/01 07:30:04;;;;;;;4.10;3.10;;;;;;;20.17;72.58;99634.96;31479;1318;3029131;-65
2022/10/01 07:32:34;;;;;;;4.90;4.00;;;;;;;20.18;72.58;99636.57;24931;1321;3026244;-64
2022/10/01 07:35:04;;;;;;;5.00;3.70;;;;;;;20.22;72.56;99641.53;24956;1321;3027276;-63
2022/10/01 07:37:34;;;;;;;4.60;4.00;;;;;;;20.19;72.89;99643.10;24991;1321;3026933;-64
2022/10/01 07:40:03;;;;;;;5.40;4.10;;;;;;;20.06;73.62;99640.30;24941;1321;3026905;-63
2022/10/01 07:42:32;;;;;;;2.20;1.70;;;;;;;19.93;73.83;99637.79;24304;1318;3932803;-62
2022/10/01 07:45:05;;;;;;;4.30;2.20;;;;;;;20.32;73.10;99633.65;25103;1315;3027500;-62
2022/10/01 07:47:34;;;;;;;4.10;2.50;;;;;;;20.73;70.04;99637.41;25035;1315;3026910;-64
2022/10/01 07:50:05;;;;;;;4.90;2.70;;;;;;;20.72;69.84;99636.44;25185;1315;3026836;-63
2022/10/01 07:52:34;;;;;;;4.90;3.00;;;;;;;20.68;70.37;99632.60;25130;1315;3057074;-63
2022/10/01 07:55:05;;;;;;;3.50;2.80;;;;;;;20.64;70.63;99635.29;25016;1315;3026560;-63
2022/10/01 07:57:34;;;;;;;3.60;2.90;;;;;;;20.54;70.99;99628.02;25104;1315;3026540;-62
2022/10/01 08:00:04;;;;;;;4.80;3.00;;;;;;;20.54;70.99;99630.05;25098;1314;3026950;-64
2022/10/01 08:02:46;;;;;;;4.90;3.30;;;;;;;20.36;71.51;99634.98;25107;1315;3070486;-65
2022/10/01 08:05:18;;;;;;;;;;;;;;;20.42;71.96;99633.58;25021;1315;3048794;-64
2022/10/01 08:07:49;;;;;;;3.50;1.80;;;;;;;21.09;68.93;99624.17;25144;1315;3051929;-64
2022/10/01 08:10:18;;;;;;;3.70;1.90;;;;;;;21.69;67.04;99617.67;25095;1315;3026816;-65
2022/10/01 08:12:47;;;;;;;4.20;2.50;;;;;;;21.78;65.12;99614.75;25170;1315;3028077;-63
2022/10/01 08:15:17;;;;;;;2.60;2.20;;;;;;;21.94;65.12;99608.15;25005;1315;3026745;-63
2022/10/01 08:17:46;;;;;;;4.40;2.70;;;;;;;21.96;65.34;99609.52;25105;1315;3053832;-63
2022/10/01 08:20:19;;;;;;;3.00;2.30;;;;;;;21.90;65.96;99606.20;25093;1315;3026917;-66
2022/10/01 08:22:48;;;;;;;3.90;2.80;;;;;;;21.97;65.36;99607.59;25151;1315;3026829;-62
2022/10/01 08:25:17;;;;;;;3.50;2.40;;;;;;;22.00;64.81;99606.52;25078;1315;3026956;-68
2022/10/01 08:27:48;;;;;;;6.20;2.70;;;;;;;21.99;64.96;99607.23;25134;1315;3056154;-63
2022/10/01 08:30:17;;;;;;;6.00;2.90;;;;;;;22.05;65.58;99609.95;25122;1315;3026740;-64
2022/10/01 08:32:46;;;;;;;2.60;2.40;;;;;;;22.03;65.15;99606.98;25069;1315;3028419;-66
2022/10/01 08:35:16;;;;;;;6.70;2.60;;;;;;;22.10;64.12;99609.05;25077;1315;3057087;-62
2022/10/01 08:37:45;;;;;;;3.90;2.50;;;;;;;22.20;65.00;99602.79;25109;1315;3026383;-63
2022/10/01 08:40:14;;;;;;;5.50;3.50;;;;;;;22.13;63.90;99601.44;24998;1315;3055264;-66
2022/10/01 08:43:05;;;;;;;12.90;6.80;;;;;;;21.96;62.98;99601.80;25132;1315;3027115;-64
2022/10/01 08:45:54;;;;;;;14.60;6.10;;;;;;;21.87;63.99;99599.90;25115;1315;3054728;-64
2022/10/01 08:48:46;;;;;;;5.40;4.00;;;;;;;21.83;64.33;99600.17;25011;1315;3055033;-65
2022/10/01 08:51:26;;;;;;;7.50;3.10;;;;;;;21.78;62.82;99600.31;24968;1314;3059400;-64
2022/10/01 08:54:34;;;;;;;8.50;5.00;;;;;;;21.80;63.61;99606.21;25146;1315;3050772;-63
2022/10/01 08:57:04;;;;;;;5.30;3.30;;;;;;;21.86;64.29;99601.83;25078;1314;3052964;-64
2022/10/01 08:59:41;;;;;;;5.10;3.20;;;;;;;21.86;64.28;99594.84;25156;1315;3026598;-64
2022/10/01 09:02:17;;;;;;;4.10;2.80;;;;;;;22.02;64.13;99584.20;25032;1315;3070468;-64
2022/10/01 09:04:47;;;;;;;5.70;3.30;;;;;;;22.00;64.67;99587.34;25032;1315;3048594;-64
2022/10/01 09:07:38;;;;;;;4.70;3.20;;;;;;;22.04;64.64;99579.25;25160;1315;3026417;-64
2022/10/01 09:10:27;;;;;;;5.20;3.20;;;;;;;22.10;64.87;99582.86;25146;1315;3055189;-65
2022/10/01 09:13:22;;;;;;;8.40;3.80;;;;;;;22.06;64.43;99577.91;25075;1315;3059414;-65
2022/10/01 09:16:11;;;;;;;5.50;3.60;;;;;;;22.11;65.24;99580.26;25097;1314;3052770;-68
2022/10/01 09:18:53;;;;;;;3.90;3.10;;;;;;;22.32;65.49;99578.39;25008;1315;3053765;-62
2022/10/01 09:21:49;;;;;;;6.90;4.10;;;;;;;22.29;65.86;99573.70;25182;1313;3052651;-65
2022/10/01 09:24:25;;;;;;;4.40;2.40;;;;;;;22.33;66.66;99572.23;25080;1315;3069887;-63
2022/10/01 09:26:54;;;;;;;3.30;2.20;;;;;;;22.91;64.52;99562.13;25073;1315;3048886;-66
2022/10/01 09:29:30;;;;;;;4.30;2.90;;;;;;;23.29;62.65;99564.05;25103;1315;3026510;-64
2022/10/01 09:32:00;;;;;;;5.10;3.10;;;;;;;23.26;63.41;99559.00;25059;1315;3026644;-64
2022/10/01 09:34:33;;;;;;;4.20;3.40;;;;;;;23.24;64.17;99564.90;25198;1315;3026715;-64
2022/10/01 09:37:04;;;;;;;5.80;3.60;;;;;;;22.97;64.36;99564.33;25050;1315;3026760;-65
2022/10/01 09:39:50;;;;;;;4.80;3.10;;;;;;;22.55;65.44;99567.70;25146;1315;3026421;-65
2022/10/01 09:42:19;;;;;;;5.30;3.60;;;;;;;22.49;65.87;99567.30;25063;1315;3052188;-66
2022/10/01 09:44:48;;;;;;;4.60;3.90;;;;;;;22.21;66.54;99565.25;25007;1315;3029387;-65
2022/10/01 09:47:19;;;;;;;5.00;3.70;;;;;;;22.13;66.44;99566.62;25086;1315;3025911;-67
2022/10/01 09:49:48;;;;;;;7.00;4.30;;;;;;;22.09;67.28;99569.02;25097;1315;3049811;-64
2022/10/01 09:52:29;;;;;;;5.90;4.20;;;;;;;22.12;67.79;99569.39;25107;1314;3026602;-63
2022/10/01 09:55:02;;;;;;;4.80;3.90;;;;;;;22.11;68.18;99574.34;25035;1316;3052029;-65
2022/10/01 09:57:39;;;;;;;6.10;4.10;;;;;;;22.12;68.86;99570.30;25088;1315;3052297;-65
2022/10/01 10:00:35;;;;;;;5.70;4.50;;;;;;;22.03;68.82;99571.63;25146;1315;3052567;-66
2022/10/01 10:03:04;;;;;;;3.90;2.20;;;;;;;22.25;68.44;99568.79;24993;1315;3056578;-65
2022/10/01 10:05:42;;;;;;;5.60;3.10;;;;;;;22.80;66.13;99561.73;25074;1315;3026405;-65
2022/10/01 10:08:13;;;;;;;4.90;3.40;;;;;;;23.06;65.12;99553.45;25104;1315;3053673;-66
2022/10/01 10:11:09;;;;;;;5.90;3.60;;;;;;;23.00;65.24;99549.05;25069;1315;3026148;-65
2022/10/01 10:13:40;;;;;;;7.00;4.30;;;;;;;22.97;65.35;99552.53;25061;1315;3050612;-64
2022/10/01 10:16:25;;;;;;;5.50;3.80;;;;;;;22.98;65.42;99553.38;25090;1318;3026141;-65
2022/10/01 10:19:08;;;;;;;5.10;4.00;;;;;;;22.78;64.82;99551.44;25087;1315;3050262;-64
2022/10/01 10:21:51;;;;;;;8.20;4.30;;;;;;;22.51;65.27;99555.11;25093;1315;3069269;-64
2022/10/01 10:24:31;;;;;;;7.80;4.60;;;;;;;22.45;66.23;99551.98;25129;1315;3052072;-64
2022/10/01 10:27:03;;;;;;;7.00;5.00;;;;;;;22.37;66.73;99550.16;25172;1315;3054840;-63
2022/10/01 10:29:34;;;;;;;5.70;5.00;;;;;;;22.43;67.01;99546.86;25088;1314;3026451;-63
2022/10/01 10:32:09;;;;;;;6.60;4.90;;;;;;;22.41;67.07;99543.17;25086;1315;3029187;-63
2022/10/01 10:34:40;;;;;;;6.00;5.20;;;;;;;22.27;66.74;99541.45;25000;1315;3052752;-65
2022/10/01 10:37:15;;;;;;;6.90;5.80;;;;;;;22.12;67.76;99540.34;25402;1315;3026818;-66
2022/10/01 10:39:46;;;;;;;7.70;5.70;;;;;;;22.05;68.48;99544.37;25073;1315;3049388;-68
2022/10/01 10:42:15;;;;;;;6.90;5.70;;;;;;;21.94;69.48;99545.88;25005;1314;3028588;-65
2022/10/01 10:44:46;;;;;;;3.70;2.70;;;;;;;22.16;69.08;99532.81;25045;1315;3028670;-64
2022/10/01 10:47:16;;;;;;;6.00;3.70;;;;;;;22.80;67.15;99529.90;25047;1316;3026597;-65
2022/10/01 10:49:55;;;;;;;6.50;4.70;;;;;;;23.36;64.80;99527.30;25145;1315;3027292;-65
2022/10/01 10:52:32;;;;;;;8.20;5.30;;;;;;;23.29;63.84;99539.23;25100;1313;3056000;-63
2022/10/01 10:55:29;;;;;;;6.90;5.10;;;;;;;23.09;64.63;99534.99;25177;1315;3049792;-64
2022/10/01 10:58:13;;;;;;;6.70;5.20;;;;;;;22.93;65.16;99525.89;25195;1315;3056079;-64
2022/10/01 11:00:44;;;;;;;8.10;6.60;;;;;;;22.86;65.14;99535.67;25116;1316;3051025;-63
2022/10/01 11:03:14;;;;;;;7.90;6.60;;;;;;;22.69;66.06;99527.96;25130;1315;3026409;-62
2022/10/01 11:05:43;;;;;;;7.30;5.20;;;;;;;22.54;66.25;99522.99;25115;1315;3026855;-63
2022/10/01 11:08:24;;;;;;;6.10;5.50;;;;;;;22.56;66.66;99521.12;25160;1315;3055227;-62
2022/10/01 11:11:13;;;;;;;6.30;5.10;;;;;;;22.43;67.52;99525.63;25076;1315;3028052;-64
2022/10/01 11:14:23;;;;;;;8.30;5.90;;;;;;;22.34;67.56;99518.38;25110;1315;3056346;-64
2022/10/01 11:17:23;;;;;;;6.90;5.90;;;;;;;22.21;68.36;99518.36;24897;1320;3052513;-64
2022/10/01 11:20:23;;;;;;;7.70;6.50;;;;;;;22.22;68.76;99510.96;25079;1315;3055350;-63
2022/10/01 11:22:55;;;;;;;7.20;6.40;;;;;;;22.45;68.03;99513.83;25055;1315;3050657;-62
2022/10/01 11:25:45;;;;;;;4.10;3.10;;;;;;;22.50;68.43;99513.83;25098;1315;3026276;-62
2022/10/01 11:28:32;;;;;;;4.40;3.40;;;;;;;23.05;66.16;99504.02;25120;1314;3052079;-66
2022/10/01 11:31:05;;;;;;;6.60;4.30;;;;;;;23.64;64.43;99499.67;25067;1315;3052504;-67
2022/10/01 11:33:37;;;;;;;5.90;4.60;;;;;;;23.66;63.70;99499.55;25129;1315;3026780;-64
2022/10/01 11:36:10;;;;;;;7.90;6.00;;;;;;;23.61;63.50;99495.63;25208;1315;3028694;-61
2022/10/01 11:38:51;;;;;;;7.10;5.80;;;;;;;23.30;64.03;99495.09;25115;1315;3052323;-66
2022/10/01 11:41:43;;;;;;;7.10;6.00;;;;;;;22.92;65.33;99499.88;25096;1315;3052848;-65
2022/10/01 11:44:37;;;;;;;8.10;5.90;;;;;;;22.81;65.54;99498.94;25121;1315;3051125;-64
2022/10/01 11:47:12;;;;;;;;;;;;;;;22.51;65.95;99504.98;25023;1315;3070043;-63
2022/10/01 11:50:12;;;;;;;8.00;5.90;;;;;;;22.39;66.44;99506.61;25019;1315;3051798;-62
2022/10/01 11:53:01;;;;;;;7.40;5.80;;;;;;;22.38;66.69;99508.48;25139;1315;3053019;-64